Terminal Aerodrome Forecast
Issued by NWS Jacksonville, FL

Home | Current Version | Previous Version | Text Only | Print | Product List | Glossary On
Versions: 1 2 3 4 5 6 7 8 9 10 11 12 13 14 15 16 17 18 19 20 21 22 23 24 25 26 27 28 29 30 31 32 33 34 35 36 37 38
000
FTUS42 KJAX 191137
TAFSSI
TAF
KSSI 191137Z 1912/2012 24007KT P6SM FEW035 BKN150
     FM191400 24010KT P6SM VCSH BKN025 BKN050
     FM191600 23010KT P6SM VCTS BKN030CB BKN060
      TEMPO 1916/1920 VRB15G25KT 3SM TSRA BKN020CB OVC040
     FM200000 22010KT P6SM SCT025 BKN150 BKN250=

USA.gov is the U.S. government's official web portal to all federal, state and local government web resources and services.